| time (UTC) | temp C | wind direction | speed KPH | gust KPH | rain 1hr cm | rain 24hr cm | rain mn cm | humidity % | barometer mb |
| 20260510063049 | 12 | 137 | 1.6 | 4.8 | 0.00 | 1.70 | 0.15 | 96 | 1011.8 |
| 20260510061602 | 11 | 143 | 0.0 | 4.8 | 0.00 | 1.70 | 0.15 | 96 | 1011.7 |
| 20260510060101 | 11 | 180 | 0.0 | 3.2 | 0.00 | 1.70 | 0.15 | 96 | 1011.7 |
| 20260510054606 | 11 | 196 | 0.0 | 0.0 | 0.00 | 1.70 | 0.15 | 96 | 1011.7 |
| 20260510053104 | 11 | 196 | 0.0 | 0.0 | 0.00 | 1.70 | 0.15 | 96 | 1011.8 |
| 20260510051546 | 11 | 205 | 0.0 | 4.8 | 0.00 | 1.70 | 0.15 | 96 | 1011.6 |
| 20260510050031 | 11 | 206 | 0.0 | 0.0 | 0.00 | 1.70 | 0.15 | 96 | 1011.7 |
| 20260510044624 | 11 | 206 | 0.0 | 0.0 | 0.03 | 1.70 | 0.15 | 96 | 1011.6 |
| 20260510043127 | 11 | 206 | 0.0 | 3.2 | 0.03 | 1.70 | 0.15 | 96 | 1011.7 |
| 20260510041518 | 11 | 191 | 1.6 | 4.8 | 0.03 | 1.70 | 0.15 | 96 | 1011.7 |
| 20260510040044 | 11 | 217 | 1.6 | 4.8 | 0.03 | 1.70 | 0.15 | 96 | 1011.7 |
| 20260510034537 | 11 | 209 | 3.2 | 6.4 | 0.00 | 1.68 | 0.15 | 96 | 1011.8 |
| 20260510033124 | 11 | 211 | 1.6 | 8.0 | 0.00 | 1.68 | 0.15 | 96 | 1011.9 |
| 20260510031619 | 10 | 210 | 1.6 | 6.4 | 0.00 | 1.68 | 0.15 | 96 | 1011.9 |
| 20260510030003 | 10 | 110 | 0.0 | 0.0 | 0.00 | 1.68 | 0.15 | 95 | 1012.0 |
| 20260510024541 | 11 | 111 | 0.0 | 0.0 | 0.00 | 1.68 | 0.15 | 95 | 1012.0 |
| 20260510023114 | 11 | 111 | 0.0 | 0.0 | 0.00 | 1.68 | 0.15 | 95 | 1012.1 |
| 20260510021613 | 11 | 111 | 0.0 | 0.0 | 0.00 | 1.68 | 0.15 | 96 | 1012.1 |
| 20260510020115 | 11 | 111 | 0.0 | 0.0 | 0.00 | 1.68 | 0.15 | 95 | 1012.0 |
| 20260510014620 | 11 | 110 | 0.0 | 0.0 | 0.00 | 1.68 | 0.15 | 95 | 1012.1 |
| 20260510013137 | 11 | 110 | 0.0 | 0.0 | 0.00 | 1.68 | 0.15 | 95 | 1012.0 |
| 20260510011505 | 11 | 110 | 0.0 | 0.0 | 0.00 | 1.68 | 0.15 | 95 | 1012.4 |
| 20260510010058 | 12 | 110 | 0.0 | 0.0 | 0.00 | 1.68 | 0.15 | 96 | 1012.6 |
| 20260510004558 | 12 | 110 | 0.0 | 0.0 | 0.00 | 1.68 | 0.15 | 95 | 1012.7 |
| 20260510003113 | 12 | 110 | 0.0 | 0.0 | 0.00 | 1.68 | 0.15 | 95 | 1013.0 |
| 20260510001625 | 12 | 110 | 0.0 | 0.0 | 0.03 | 1.68 | 0.15 | 95 | 1013.3 |
| 20260510000009 | 12 | 110 | 0.0 | 0.0 | 0.03 | 1.68 | 0.15 | 95 | 1013.4 |
| 20260509234506 | 12 | 110 | 0.0 | 0.0 | 0.05 | 1.68 | 0.15 | 95 | 1013.7 |
| 20260509233106 | 12 | 110 | 0.0 | 0.0 | 0.08 | 1.65 | 0.13 | 95 | 1013.9 |
| 20260509231631 | 12 | 110 | 0.0 | 0.0 | 0.13 | 1.65 | 0.13 | 95 | 1014.0 |
| 20260509230026 | 12 | 110 | 0.0 | 0.0 | 0.15 | 1.65 | 0.13 | 95 | 1014.1 |
| 20260509224534 | 12 | 110 | 0.0 | 0.0 | 0.13 | 1.63 | 0.08 | 95 | 1014.2 |
| 20260509223136 | 12 | 110 | 0.0 | 0.0 | 0.13 | 1.60 | 0.05 | 95 | 1014.2 |
| 20260509221533 | 12 | 110 | 0.0 | 0.0 | 0.08 | 1.55 | 0.00 | 95 | 1014.2 |
| 20260509220002 | 12 | 110 | 0.0 | 0.0 | 0.05 | 1.50 | 1.50 | 95 | 1014.0 |
| 20260509214604 | 12 | 109 | 0.0 | 0.0 | 0.08 | 1.50 | 1.50 | 95 | 1013.8 |
| 20260509213013 | 12 | 108 | 0.0 | 0.0 | 0.10 | 1.45 | 1.45 | 95 | 1013.8 |
| 20260509211520 | 12 | 108 | 0.0 | 0.0 | 0.08 | 1.42 | 1.42 | 94 | 1013.6 |
| 20260509210101 | 12 | 108 | 0.0 | 0.0 | 0.05 | 1.42 | 1.42 | 94 | 1013.6 |
| 20260509204625 | 12 | 108 | 0.0 | 0.0 | 0.05 | 1.42 | 1.42 | 94 | 1013.5 |
| 20260509203129 | 12 | 108 | 0.0 | 0.0 | 0.03 | 1.37 | 1.37 | 94 | 1013.3 |
| 20260509201504 | 12 | 33 | 0.0 | 0.0 | 0.03 | 1.37 | 1.37 | 94 | 1012.9 |
| 20260509200131 | 12 | 34 | 0.0 | 3.2 | 0.05 | 1.37 | 1.37 | 94 | 1012.6 |
| 20260509194510 | 12 | 33 | 0.0 | 3.2 | 0.08 | 1.37 | 1.37 | 94 | 1012.3 |
| 20260509193102 | 12 | 34 | 0.0 | 4.8 | 0.13 | 1.37 | 1.37 | 94 | 1012.3 |
| 20260509191610 | 12 | 30 | 0.0 | 6.4 | 0.18 | 1.37 | 1.37 | 93 | 1011.9 |
| 20260509190108 | 12 | 63 | 3.2 | 9.7 | 0.23 | 1.35 | 1.35 | 93 | 1011.4 |
| 20260509184636 | 12 | 30 | 4.8 | 16.1 | 0.36 | 1.30 | 1.30 | 93 | 1010.9 |
| 20260509183056 | 12 | 20 | 6.4 | 14.5 | 0.43 | 1.24 | 1.24 | 92 | 1011.3 |
| 20260509181540 | 13 | 34 | 4.8 | 8.0 | 0.58 | 1.17 | 1.17 | 92 | 1012.0 |
| 20260509180034 | 13 | 24 | 3.2 | 12.9 | 0.79 | 1.09 | 1.09 | 91 | 1012.1 |
| 20260509174551 | 13 | 78 | 0.0 | 0.0 | 0.76 | 0.91 | 0.91 | 91 | 1012.8 |
| 20260509173011 | 13 | 78 | 0.0 | 0.0 | 0.76 | 0.81 | 0.81 | 90 | 1013.0 |
| 20260509171557 | 14 | 78 | 0.0 | 0.0 | 0.58 | 0.58 | 0.58 | 89 | 1013.1 |
| 20260509170056 | 15 | 78 | 0.0 | 1.6 | 0.30 | 0.30 | 0.30 | 89 | 1013.3 |
| 20260509164635 | 15 | 78 | 0.0 | 1.6 | 0.15 | 0.15 | 0.15 | 88 | 1013.3 |
| 20260509163002 | 16 | 78 | 0.0 | 4.8 | 0.05 | 0.05 | 0.05 | 86 | 1013.0 |
| 20260509161526 | 16 | 111 | 1.6 | 9.7 | 0.00 | 0.00 | 0.00 | 84 | 1012.5 |
| 20260509160018 | 16 | 49 | 3.2 | 11.3 | 0.00 | 0.00 | 0.00 | 83 | 1011.9 |
| 20260509154536 | 16 | 43 | 4.8 | 14.5 | 0.00 | 0.00 | 0.00 | 82 | 1011.4 |
| 20260509153045 | 16 | 48 | 4.8 | 11.3 | 0.00 | 0.00 | 0.00 | 82 | 1011.9 |
| 20260509151513 | 17 | 23 | 3.2 | 8.0 | 0.00 | 0.00 | 0.00 | 80 | 1012.2 |
| 20260509150014 | 17 | 47 | 1.6 | 9.7 | 0.00 | 0.00 | 0.00 | 78 | 1012.6 |
| 20260509144543 | 17 | 46 | 0.0 | 3.2 | 0.00 | 0.00 | 0.00 | 78 | 1013.4 |
| 20260509143136 | 17 | 46 | 0.0 | 9.7 | 0.00 | 0.00 | 0.00 | 78 | 1013.3 |
| 20260509141600 | 17 | 18 | 3.2 | 11.3 | 0.00 | 0.00 | 0.00 | 78 | 1012.8 |
| 20260509140121 | 17 | 54 | 1.6 | 8.0 | 0.00 | 0.00 | 0.00 | 79 | 1013.1 |
| 20260509134626 | 17 | 53 | 4.8 | 11.3 | 0.00 | 0.00 | 0.00 | 77 | 1013.0 |
| 20260509133137 | 17 | 53 | 3.2 | 11.3 | 0.00 | 0.00 | 0.00 | 82 | 1012.9 |
| 20260509131508 | 17 | 30 | 3.2 | 11.3 | 0.00 | 0.00 | 0.00 | 82 | 1013.2 |
| 20260509130050 | 17 | 355 | 0.0 | 6.4 | 0.00 | 0.00 | 0.00 | 83 | 1013.4 |
| 20260509124546 | 17 | 32 | 0.0 | 8.0 | 0.00 | 0.00 | 0.00 | 85 | 1013.5 |
| 20260509123138 | 16 | 36 | 1.6 | 6.4 | 0.00 | 0.00 | 0.00 | 85 | 1013.7 |
| 20260509121627 | 17 | 60 | 1.6 | 4.8 | 0.00 | 0.00 | 0.00 | 84 | 1014.1 |
| 20260509120038 | 17 | 64 | 1.6 | 6.4 | 0.00 | 0.00 | 0.00 | 82 | 1014.5 |
| 20260509114605 | 17 | 103 | 0.0 | 11.3 | 0.00 | 0.00 | 0.00 | 81 | 1014.5 |
| 20260509113020 | 17 | 56 | 4.8 | 14.5 | 0.00 | 0.00 | 0.00 | 80 | 1014.3 |
| 20260509111626 | 17 | 32 | 8.0 | 14.5 | 0.00 | 0.00 | 0.00 | 78 | 1014.3 |
| 20260509110003 | 18 | 32 | 3.2 | 9.7 | 0.00 | 0.00 | 0.00 | 75 | 1014.3 |
| 20260509104510 | 18 | 40 | 3.2 | 11.3 | 0.00 | 0.00 | 0.00 | 78 | 1014.4 |
| 20260509103018 | 17 | 59 | 1.6 | 9.7 | 0.00 | 0.00 | 0.00 | 79 | 1014.6 |
| 20260509101524 | 17 | 66 | 3.2 | 11.3 | 0.00 | 0.00 | 0.00 | 79 | 1014.7 |
| 20260509100028 | 17 | 91 | 4.8 | 12.9 | 0.00 | 0.00 | 0.00 | 79 | 1014.5 |
| 20260509094614 | 17 | 349 | 4.8 | 14.5 | 0.00 | 0.00 | 0.00 | 78 | 1014.4 |
| 20260509093040 | 17 | 55 | 3.2 | 9.7 | 0.00 | 0.00 | 0.00 | 78 | 1014.3 |
| 20260509091526 | 18 | 56 | 4.8 | 11.3 | 0.00 | 0.00 | 0.00 | 78 | 1014.2 |
| 20260509090048 | 18 | 31 | 4.8 | 12.9 | 0.00 | 0.00 | 0.00 | 79 | 1014.1 |
| 20260509084552 | 17 | 57 | 3.2 | 11.3 | 0.00 | 0.00 | 0.00 | 81 | 1014.1 |
| 20260509083102 | 17 | 22 | 1.6 | 8.0 | 0.00 | 0.00 | 0.00 | 83 | 1014.3 |
| 20260509081538 | 17 | 40 | 3.2 | 6.4 | 0.00 | 0.00 | 0.00 | 83 | 1014.5 |
| 20260509080031 | 16 | 38 | 1.6 | 6.4 | 0.00 | 0.00 | 0.00 | 83 | 1014.6 |
| 20260509074608 | 16 | 49 | 0.0 | 3.2 | 0.00 | 0.00 | 0.00 | 85 | 1014.8 |
| 20260509073107 | 15 | 49 | 0.0 | 1.6 | 0.00 | 0.00 | 0.00 | 86 | 1014.8 |
| 20260509071512 | 14 | 49 | 0.0 | 6.4 | 0.00 | 0.00 | 0.00 | 87 | 1014.9 |
| 20260509070056 | 14 | 248 | 0.0 | 0.0 | 0.00 | 0.00 | 0.00 | 89 | 1014.8 |
| 20260509064521 | 13 | 248 | 0.0 | 1.6 | 0.00 | 0.00 | 0.00 | 91 | 1014.9 |